Main page
METAR-TAF:

METAR-TAF

Airports :

Lengpui Airport

Aizawl, India

latitude: 23-50-18N, longitude: 92-37-13E, elevation: 405 m

Current weather observation

The report was made 1 hour and 50 minutes ago, at 02:00 UTC
Wind 3 kt from the Southeast
Temperature 18°C
Humidity 73%
Pressure 1015 hPa
Visibility: 2500 m
Scattered clouds at a height of 2000 ft
Broken clouds at a height of 10000 ft
mist

METAR: VELP 250200Z 13003KT 2500 BR SCT020 BKN100 18/13 Q1015 BECMG 3000 HZ

Time: 09:20 (03:50 UTC)

Forecast

The report was made 1 hour and 50 minutes ago, at 02:00 UTC
Forecast valid from 25 at 03 UTC to 25 at 12 UTC
Wind 4 kt from the South/Southeast
Visibility: 3000 m
Scattered clouds at a height of 2000 ft
Broken clouds at a height of 10000 ft
mist
Becoming
from 25 at 04 UTC to 25 at 06 UTC
Visibility: 5000 m
haze

TAF: VELP 250200Z 2503/2512 16004KT 3000 BR SCT020 BKN100 BECMG 2504/2506 5000 HZ

Weather observations and forecasts of more than 4000 airports (METAR and TAF reports).

The available stations are represented by yellow and red dots on the map.

Hover mouse over dot to see the name of the station.

Then click to see weather observations and forecasts.

To change the map : click on the green buttons with a black cross to zoom in, on the green button with a dash to zoom out, or on the green arrows for adjacent maps.


METAR-TAF: